createdAt,value
2023-05-01T00:00:11.348Z,71.41
2023-05-01T00:02:55.297Z,71.89
2023-05-01T00:05:35.641Z,71.65
2023-05-01T00:08:22.185Z,72.50
2023-05-01T00:11:19.232Z,72.07
2023-05-01T00:13:59.525Z,72.10
2023-05-01T00:16:46.323Z,71.67
2023-05-01T00:19:26.660Z,71.24
2023-05-01T00:22:13.210Z,70.87
2023-05-01T00:25:00.288Z,69.94
2023-05-01T00:27:40.164Z,71.02
2023-05-01T00:30:20.625Z,70.44
2023-05-01T00:33:07.208Z,69.94
2023-05-01T00:35:47.556Z,68.99
2023-05-01T00:38:34.172Z,68.98
2023-05-01T00:41:21.445Z,68.35
2023-05-01T00:44:01.206Z,68.32
2023-05-01T00:46:42.595Z,68.75
2023-05-01T00:49:29.187Z,68.09
2023-05-01T00:52:19.183Z,67.12
2023-05-01T00:54:59.262Z,65.96
2023-05-01T00:57:46.185Z,64.97
2023-05-01T01:00:26.338Z,64.44
2023-05-01T01:03:13.153Z,64.90
2023-05-01T01:06:03.719Z,63.67
2023-05-01T01:09:00.155Z,63.17
2023-05-01T01:11:59.298Z,62.66
2023-05-01T01:14:55.119Z,59.62
2023-05-01T01:18:12.172Z,58.59
2023-05-01T01:21:02.142Z,59.82
2023-05-01T01:24:08.090Z,59.26
2023-05-01T01:27:13.246Z,58.61
2023-05-01T01:30:12.155Z,57.95
2023-05-01T01:33:09.876Z,57.35
2023-05-01T01:36:07.078Z,57.82
2023-05-01T01:39:03.914Z,57.86
2023-05-01T01:41:55.096Z,58.27
2023-05-01T01:45:12.036Z,58.67
2023-05-01T01:48:01.099Z,59.68
2023-05-01T01:50:43.360Z,59.26
2023-05-01T01:53:33.092Z,58.43
2023-05-01T01:56:17.130Z,59.07
2023-05-01T01:59:05.112Z,59.33
2023-05-01T02:01:54.145Z,58.47
2023-05-01T02:04:36.245Z,59.61
2023-05-01T02:07:25.049Z,60.49
2023-05-01T02:10:07.290Z,60.72
2023-05-01T02:12:57.045Z,60.88
2023-05-01T02:15:46.108Z,57.11
2023-05-01T02:18:31.079Z,56.59
2023-05-01T02:21:19.075Z,55.16
2023-05-01T02:24:08.056Z,54.11
2023-05-01T02:27:03.030Z,53.83
2023-05-01T02:29:44.383Z,54.06
2023-05-01T02:32:31.048Z,54.75
2023-05-01T02:35:11.407Z,53.95
2023-05-01T02:38:01.079Z,53.45
2023-05-01T02:40:59.052Z,53.03
2023-05-01T02:43:48.011Z,51.75
2023-05-01T02:46:31.565Z,49.09
2023-05-01T02:49:19.057Z,51.19
2023-05-01T02:52:00.710Z,51.16
2023-05-01T02:54:47.006Z,49.59
2023-05-01T02:57:33.996Z,47.73
2023-05-01T03:00:21.038Z,48.63
2023-05-01T03:03:01.275Z,49.09
2023-05-01T03:05:48.204Z,49.40
2023-05-01T03:08:28.185Z,50.28
2023-05-01T03:11:15.027Z,50.00
2023-05-01T03:13:55.129Z,50.34
2023-05-01T03:16:42.126Z,50.54
2023-05-01T03:19:28.959Z,50.14
2023-05-01T03:22:09.320Z,48.52
2023-05-01T03:24:56.961Z,48.91
2023-05-01T03:27:37.367Z,48.02
2023-05-01T03:30:23.978Z,48.72
2023-05-01T03:33:04.504Z,46.14
2023-05-01T03:35:50.937Z,46.33
2023-05-01T03:38:32.162Z,46.41
2023-05-01T03:41:24.951Z,47.46
2023-05-01T03:44:23.314Z,46.98
2023-05-01T03:47:09.933Z,46.27
2023-05-01T03:49:50.501Z,45.66
2023-05-01T03:52:36.962Z,46.54
2023-05-01T03:55:17.464Z,47.36
2023-05-01T03:58:03.966Z,47.77
2023-05-01T04:00:45.284Z,47.55
2023-05-01T04:03:31.999Z,47.32
2023-05-01T04:06:13.297Z,47.03
2023-05-01T04:09:00.871Z,46.37
2023-05-01T04:11:48.066Z,47.05
2023-05-01T04:14:27.892Z,47.16
2023-05-01T04:17:15.893Z,46.97
2023-05-01T04:19:56.451Z,49.58
2023-05-01T04:22:43.864Z,50.54
2023-05-01T04:25:30.870Z,51.08
2023-05-01T04:28:17.324Z,51.10
2023-05-01T04:31:03.998Z,51.29
2023-05-01T04:33:50.873Z,53.15
2023-05-01T04:36:32.975Z,54.16
2023-05-01T04:39:19.935Z,54.54
2023-05-01T04:42:07.958Z,54.91
2023-05-01T04:44:47.880Z,55.34
2023-05-01T04:47:28.942Z,53.82
2023-05-01T04:50:15.862Z,53.48
2023-05-01T04:52:56.518Z,54.86
2023-05-01T04:55:42.872Z,55.66
2023-05-01T04:58:24.408Z,56.22
2023-05-01T05:01:15.841Z,55.83
2023-05-01T05:03:56.450Z,56.23
2023-05-01T05:06:43.884Z,58.03
2023-05-01T05:09:32.237Z,59.06
2023-05-01T05:12:18.816Z,59.05
2023-05-01T05:14:59.176Z,60.43
2023-05-01T05:17:45.844Z,58.73
2023-05-01T05:20:26.363Z,53.92
2023-05-01T05:23:12.878Z,50.01
2023-05-01T05:25:53.192Z,47.75
2023-05-01T05:28:39.768Z,48.12
2023-05-01T05:31:26.853Z,46.33
2023-05-01T05:34:07.151Z,45.55
2023-05-01T05:36:53.846Z,45.28
2023-05-01T05:39:33.899Z,41.58
2023-05-01T05:42:20.821Z,38.61
2023-05-01T05:45:07.785Z,38.08
2023-05-01T05:47:48.209Z,35.66
2023-05-01T05:50:34.812Z,36.43
2023-05-01T05:53:24.330Z,35.95
2023-05-01T05:56:05.945Z,36.11
2023-05-01T05:58:52.781Z,36.46
2023-05-01T06:01:33.985Z,34.90
2023-05-01T06:04:21.829Z,31.79
2023-05-01T06:07:08.877Z,30.55
2023-05-01T06:09:49.134Z,29.15
2023-05-01T06:12:37.719Z,26.60
2023-05-01T06:15:21.331Z,28.29
2023-05-01T06:18:08.933Z,27.01
2023-05-01T06:20:55.775Z,24.24
2023-05-01T06:23:36.230Z,25.67
2023-05-01T06:26:51.758Z,24.33
2023-05-01T06:29:31.885Z,30.01
2023-05-01T06:32:18.764Z,28.13
2023-05-01T06:34:58.878Z,23.64
2023-05-01T06:37:45.769Z,22.67
2023-05-01T06:40:25.881Z,22.79
2023-05-01T06:43:12.780Z,23.12
2023-05-01T06:45:59.699Z,21.53
2023-05-01T06:48:40.151Z,23.38
2023-05-01T06:51:28.758Z,22.33
2023-05-01T06:54:15.718Z,19.11
2023-05-01T06:57:02.726Z,16.93
2023-05-01T06:59:43.061Z,16.39
2023-05-01T07:02:29.812Z,16.61
2023-05-01T07:05:16.692Z,16.89
2023-05-01T07:08:03.717Z,16.83
2023-05-01T07:10:44.088Z,16.05
2023-05-01T07:13:30.707Z,16.75
2023-05-01T07:16:11.211Z,16.69
2023-05-01T07:18:57.696Z,16.80
2023-05-01T07:21:38.081Z,15.96
2023-05-01T07:24:24.750Z,16.34
2023-05-01T07:40:15.812Z,16.51
2023-05-01T07:43:02.841Z,18.41
2023-05-01T07:45:43.413Z,17.56
2023-05-01T07:48:29.846Z,16.67
2023-05-01T07:51:09.965Z,16.65
2023-05-01T07:53:57.873Z,17.63
2023-05-01T07:56:44.810Z,17.63
2023-05-01T07:59:31.935Z,17.75
2023-05-01T08:02:11.869Z,16.74
2023-05-01T08:04:58.911Z,16.21
2023-05-01T08:07:38.945Z,16.63
2023-05-01T08:10:25.818Z,16.13
2023-05-01T08:13:05.875Z,16.01
2023-05-01T08:15:53.846Z,15.80
2023-05-01T08:18:40.793Z,16.36
2023-05-01T08:21:21.351Z,19.12
2023-05-01T08:24:08.820Z,19.42
2023-05-01T08:26:49.235Z,17.99
2023-05-01T08:29:35.816Z,17.48
2023-05-01T08:32:18.728Z,17.24
2023-05-01T08:35:05.751Z,16.27
2023-05-01T08:37:59.807Z,16.68
2023-05-01T08:40:44.088Z,17.79
2023-05-01T08:43:31.817Z,17.84
2023-05-01T08:46:22.805Z,18.93
2023-05-01T08:49:11.783Z,19.31
2023-05-01T08:51:57.023Z,18.02
2023-05-01T08:54:45.785Z,16.98
2023-05-01T08:57:33.814Z,16.17
2023-05-01T09:00:17.000Z,17.39
2023-05-01T09:03:07.983Z,17.21
2023-05-01T09:05:47.907Z,16.48
2023-05-01T09:08:34.767Z,16.45
2023-05-01T09:11:21.698Z,17.70
2023-05-01T09:14:05.580Z,18.51
2023-05-01T09:16:52.754Z,17.69
2023-05-01T09:19:40.942Z,20.00
2023-05-01T09:22:21.760Z,19.85
2023-05-01T09:25:03.770Z,19.44
2023-05-01T09:27:51.687Z,18.73
2023-05-01T09:30:43.738Z,18.89
2023-05-01T09:33:23.916Z,17.71
2023-05-01T09:36:10.690Z,17.76
2023-05-01T09:38:57.685Z,18.40
2023-05-01T09:41:50.998Z,18.51
2023-05-01T09:44:37.673Z,17.49
2023-05-01T09:47:25.156Z,15.53
2023-05-01T09:50:12.715Z,16.47
2023-05-01T09:52:53.109Z,15.67
2023-05-01T09:55:39.734Z,15.55
2023-05-01T09:58:35.643Z,16.12
2023-05-01T10:01:22.743Z,17.00
2023-05-01T10:04:03.742Z,16.90
2023-05-01T10:06:57.849Z,17.26
2023-05-01T10:09:38.013Z,19.33
2023-05-01T10:12:35.649Z,18.05
2023-05-01T10:15:25.506Z,18.12
2023-05-01T10:18:13.721Z,19.36
2023-05-01T10:21:00.749Z,20.57
2023-05-01T10:23:40.677Z,21.49
2023-05-01T10:26:21.139Z,23.42
2023-05-01T10:29:09.676Z,23.74
2023-05-01T10:31:56.812Z,21.13
2023-05-01T10:34:38.763Z,20.87
2023-05-01T10:37:40.608Z,22.08
2023-05-01T10:40:52.677Z,23.06
2023-05-01T10:43:33.076Z,24.87
2023-05-01T10:46:33.687Z,26.00
2023-05-01T10:49:14.009Z,26.07
2023-05-01T10:52:11.665Z,23.21
2023-05-01T10:54:52.131Z,22.30
2023-05-01T10:57:56.613Z,20.37
2023-05-01T11:00:37.241Z,20.04
2023-05-01T11:03:49.631Z,19.65
2023-05-01T11:06:30.869Z,20.31
2023-05-01T11:09:49.600Z,20.46
2023-05-01T11:12:56.930Z,22.35
2023-05-01T11:15:39.598Z,22.81
2023-05-01T11:18:45.940Z,26.01
2023-05-01T11:21:32.622Z,27.40
2023-05-01T11:24:13.071Z,27.43
2023-05-01T11:26:59.636Z,27.62
2023-05-01T11:29:40.534Z,28.20
2023-05-01T11:32:33.936Z,27.12
2023-05-01T11:35:19.837Z,28.61
2023-05-01T11:38:06.619Z,29.22
2023-05-01T11:41:01.069Z,29.68
2023-05-01T11:43:40.543Z,28.99
2023-05-01T11:46:39.630Z,28.71
2023-05-01T11:49:19.700Z,28.47
2023-05-01T11:52:06.582Z,28.68
2023-05-01T11:55:01.980Z,28.46
2023-05-01T11:57:59.604Z,28.31
2023-05-01T12:00:51.587Z,28.67
2023-05-01T12:03:48.644Z,29.37
2023-05-01T12:06:28.673Z,29.24
2023-05-01T12:09:16.573Z,29.75
2023-05-01T12:11:59.835Z,30.61
2023-05-01T12:14:47.569Z,30.63
2023-05-01T12:17:28.521Z,30.89
2023-05-01T12:20:16.534Z,33.02
2023-05-01T12:22:57.755Z,33.78
2023-05-01T12:25:46.709Z,31.93
2023-05-01T12:28:27.788Z,31.72
2023-05-01T12:31:14.558Z,31.88
2023-05-01T12:34:01.850Z,32.44
2023-05-01T12:36:48.563Z,32.79
2023-05-01T12:39:46.674Z,31.19
2023-05-01T12:42:26.549Z,32.83
2023-05-01T12:45:16.648Z,31.79
2023-05-01T12:48:03.593Z,29.72
2023-05-01T12:50:47.281Z,32.26
2023-05-01T12:53:36.591Z,35.34
2023-05-01T12:56:31.508Z,32.08
2023-05-01T12:59:11.801Z,31.29
2023-05-01T13:02:09.620Z,34.10
2023-05-01T13:04:53.690Z,34.31
2023-05-01T13:07:43.513Z,33.81
2023-05-01T13:10:36.830Z,32.54
2023-05-01T13:13:49.488Z,38.93
2023-05-01T13:16:36.557Z,38.91
2023-05-01T13:19:29.286Z,35.21
2023-05-01T13:22:16.461Z,33.11
2023-05-01T13:24:57.156Z,33.58
2023-05-01T13:27:43.533Z,34.06
2023-05-01T13:30:41.523Z,35.33
2023-05-01T13:33:21.667Z,35.38
2023-05-01T13:36:14.503Z,36.03
2023-05-01T13:39:11.485Z,36.16
2023-05-01T13:41:52.456Z,38.74
2023-05-01T13:44:39.855Z,35.94
2023-05-01T13:47:19.887Z,36.94
2023-05-01T13:50:06.441Z,37.58
2023-05-01T13:52:47.668Z,38.94
2023-05-01T13:55:35.480Z,36.03
2023-05-01T13:58:22.494Z,37.97
2023-05-01T14:01:02.538Z,39.24
2023-05-01T14:03:43.563Z,38.75
2023-05-01T14:06:32.512Z,37.05
2023-05-01T14:09:12.897Z,37.75
2023-05-01T14:12:01.416Z,41.87
2023-05-01T14:14:47.566Z,42.51
2023-05-01T14:17:44.388Z,45.01
2023-05-01T14:20:27.693Z,46.64
2023-05-01T14:23:14.436Z,49.26
2023-05-01T14:25:54.808Z,52.21
2023-05-01T14:28:41.394Z,53.78
2023-05-01T14:31:28.512Z,54.85
2023-05-01T14:34:14.025Z,56.22
2023-05-01T14:37:02.338Z,58.39
2023-05-01T14:39:49.402Z,58.94
2023-05-01T14:42:38.401Z,61.30
2023-05-01T14:45:22.533Z,61.79
2023-05-01T14:48:09.409Z,62.81
2023-05-01T14:50:49.502Z,64.08
2023-05-01T14:53:40.379Z,64.70
2023-05-01T14:56:20.997Z,65.13
2023-05-01T14:59:07.418Z,67.24
2023-05-01T15:01:47.666Z,68.71
2023-05-01T15:04:34.436Z,67.44
2023-05-01T15:07:15.291Z,68.06
2023-05-01T15:10:02.435Z,66.87
2023-05-01T15:12:42.496Z,66.36
2023-05-01T15:15:29.362Z,65.35
2023-05-01T15:18:09.651Z,64.27
2023-05-01T15:20:56.394Z,61.57
2023-05-01T15:23:43.406Z,59.23
2023-05-01T15:26:23.770Z,59.04
2023-05-01T15:29:10.369Z,61.04
2023-05-01T15:31:58.457Z,61.58
2023-05-01T15:34:56.714Z,62.62
2023-05-01T15:37:37.786Z,59.21
2023-05-01T15:40:25.364Z,57.35
2023-05-01T15:43:13.363Z,60.71
2023-05-01T15:45:53.473Z,60.14
2023-05-01T15:48:33.885Z,60.62
2023-05-01T15:51:20.332Z,62.15
2023-05-01T15:54:07.294Z,66.50
2023-05-01T15:56:54.448Z,65.42
2023-05-01T15:59:41.330Z,66.05
2023-05-01T16:02:28.401Z,64.94
2023-05-01T16:05:08.715Z,65.90
2023-05-01T16:08:06.334Z,65.39
2023-05-01T16:10:46.434Z,65.96
2023-05-01T16:13:33.316Z,66.21
2023-05-01T16:16:17.662Z,56.67
2023-05-01T16:19:06.282Z,62.91
2023-05-01T16:21:53.270Z,62.22
2023-05-01T16:24:41.265Z,61.23
2023-05-01T16:27:24.522Z,59.85
2023-05-01T16:30:12.260Z,59.19
2023-05-01T16:32:59.239Z,62.01
2023-05-01T16:35:47.266Z,61.49
2023-05-01T16:38:27.913Z,61.17
2023-05-01T16:41:14.254Z,62.40
2023-05-01T16:43:54.365Z,63.45
2023-05-01T16:46:41.291Z,62.54
2023-05-01T16:49:22.396Z,64.71
2023-05-01T16:52:09.234Z,61.40
2023-05-01T16:54:49.314Z,61.56
2023-05-01T16:57:36.265Z,62.26
2023-05-01T17:00:23.192Z,63.02
2023-05-01T17:03:04.062Z,59.83
2023-05-01T17:05:51.249Z,59.90
2023-05-01T17:08:31.635Z,62.71
2023-05-01T17:11:21.201Z,58.96
2023-05-01T17:14:01.686Z,56.08
2023-05-01T17:16:50.057Z,56.97
2023-05-01T17:19:37.258Z,53.03
2023-05-01T17:22:17.361Z,53.95
2023-05-01T17:25:04.183Z,54.79
2023-05-01T17:27:44.313Z,54.37
2023-05-01T17:30:31.170Z,56.19
2023-05-01T17:33:11.372Z,55.11
2023-05-01T17:35:58.186Z,56.87
2023-05-01T17:38:38.318Z,57.50
2023-05-01T17:41:25.196Z,57.59
2023-05-01T17:44:05.403Z,56.80
2023-05-01T17:46:52.170Z,56.09
2023-05-01T17:49:32.936Z,54.97
2023-05-01T17:52:20.179Z,55.88
2023-05-01T17:55:00.707Z,54.92
2023-05-01T17:57:48.215Z,55.38
2023-05-01T18:00:28.944Z,54.96
2023-05-01T18:03:16.290Z,55.72
2023-05-01T18:06:03.191Z,55.28
2023-05-01T18:08:50.282Z,55.11
2023-05-01T18:11:30.230Z,56.35
2023-05-01T18:14:17.138Z,54.39
2023-05-01T18:16:57.258Z,55.14
2023-05-01T18:19:44.120Z,54.77
2023-05-01T18:22:24.274Z,54.89
2023-05-01T18:25:12.109Z,54.18
2023-05-01T18:27:52.310Z,54.63
2023-05-01T18:30:40.134Z,54.45
2023-05-01T18:33:21.562Z,54.12
2023-05-01T18:36:08.160Z,53.53
2023-05-01T18:38:48.278Z,53.46
2023-05-01T18:41:35.084Z,51.64
2023-05-01T18:44:15.220Z,52.54
2023-05-01T18:47:02.112Z,52.41
2023-05-01T18:49:42.169Z,52.86
2023-05-01T18:52:29.120Z,52.18
2023-05-01T18:55:10.243Z,51.09
2023-05-01T18:57:57.048Z,51.75
2023-05-01T19:00:37.184Z,50.39
2023-05-01T19:03:25.081Z,51.86
2023-05-01T19:06:05.400Z,52.25
2023-05-01T19:08:52.126Z,52.70
2023-05-01T19:11:32.325Z,53.14
2023-05-01T19:14:19.067Z,51.80
2023-05-01T19:17:06.040Z,51.79
2023-05-01T19:19:46.525Z,51.11
2023-05-01T19:22:33.051Z,51.23
2023-05-01T19:25:13.452Z,51.06
2023-05-01T19:28:00.106Z,52.84
2023-05-01T19:41:54.024Z,56.78
2023-05-01T19:44:34.353Z,57.14
2023-05-01T19:47:20.992Z,55.69
2023-05-01T19:50:01.639Z,54.54
2023-05-01T19:52:48.948Z,53.95
2023-05-01T19:55:35.939Z,54.34
2023-05-01T19:58:22.950Z,54.18
2023-05-01T20:01:05.115Z,54.29
2023-05-01T20:03:51.954Z,54.15
2023-05-01T20:06:32.426Z,53.96
2023-05-01T20:09:18.925Z,54.35
2023-05-01T20:11:59.352Z,54.49
2023-05-01T20:14:45.992Z,54.53
2023-05-01T20:17:34.019Z,55.05
2023-05-01T20:20:20.923Z,54.86
2023-05-01T20:23:21.969Z,56.09
2023-05-01T20:26:08.911Z,56.08
2023-05-01T20:28:51.034Z,56.25
2023-05-01T20:31:38.015Z,55.34
2023-05-01T20:34:25.901Z,55.94
2023-05-01T20:37:06.983Z,57.13
2023-05-01T20:39:53.906Z,56.22
2023-05-01T20:42:34.086Z,55.95
2023-05-01T20:45:20.930Z,57.22
2023-05-01T20:48:01.863Z,56.23
2023-05-01T20:50:49.955Z,56.16
2023-05-01T20:53:29.948Z,55.59
2023-05-01T20:56:16.897Z,54.95
2023-05-01T20:58:57.016Z,55.52
2023-05-01T21:01:43.969Z,55.70
2023-05-01T21:04:30.912Z,56.37
2023-05-01T21:07:17.877Z,55.30
2023-05-01T21:09:58.219Z,55.98
2023-05-01T21:12:44.863Z,55.95
2023-05-01T21:15:25.056Z,55.92
2023-05-01T21:18:11.872Z,56.01
2023-05-01T21:20:51.958Z,55.67
2023-05-01T21:23:38.836Z,57.77
2023-05-01T21:26:21.383Z,55.36
2023-05-01T21:29:07.861Z,57.88
2023-05-01T21:31:49.110Z,58.59
2023-05-01T21:34:35.888Z,58.69
2023-05-01T21:37:18.710Z,59.90
2023-05-01T21:40:06.834Z,59.20
2023-05-01T21:42:46.962Z,59.97
2023-05-01T21:45:33.825Z,57.86
2023-05-01T21:48:21.827Z,58.74
2023-05-01T21:51:08.859Z,54.69
2023-05-01T21:53:55.810Z,54.88
2023-05-01T21:56:36.305Z,56.92
2023-05-01T21:59:22.798Z,56.15
2023-05-01T22:02:11.110Z,57.39
2023-05-01T22:04:57.793Z,57.10
2023-05-01T22:07:48.804Z,57.14
2023-05-01T22:10:35.840Z,57.50
2023-05-01T22:13:16.293Z,57.54
2023-05-01T22:16:02.896Z,58.47
2023-05-01T22:18:43.139Z,59.15
2023-05-01T22:21:29.817Z,58.67
2023-05-01T22:24:10.240Z,61.07
2023-05-01T22:26:56.822Z,61.53
2023-05-01T22:29:37.226Z,60.30
2023-05-01T22:32:23.828Z,63.04
2023-05-01T22:35:10.776Z,62.75
2023-05-01T22:37:57.771Z,60.93
2023-05-01T22:40:44.906Z,60.53
2023-05-01T22:43:24.756Z,60.48
2023-05-01T22:46:05.683Z,61.12
2023-05-01T22:48:52.744Z,60.99
2023-05-01T22:51:39.770Z,61.87
2023-05-01T22:54:19.993Z,61.47
2023-05-01T22:57:06.716Z,60.23
2023-05-01T22:59:46.866Z,58.95
2023-05-01T23:02:33.863Z,58.84
2023-05-01T23:05:13.814Z,58.31
2023-05-01T23:08:00.694Z,60.05
2023-05-01T23:10:47.718Z,58.91
2023-05-01T23:13:34.739Z,59.08
2023-05-01T23:16:18.225Z,58.36
2023-05-01T23:19:04.750Z,57.90
2023-05-01T23:21:45.827Z,58.83
2023-05-01T23:24:43.728Z,59.36
2023-05-01T23:27:24.850Z,58.71
2023-05-01T23:30:11.691Z,58.41
2023-05-01T23:32:58.721Z,59.62
2023-05-01T23:35:39.027Z,60.06
2023-05-01T23:38:25.813Z,59.77
2023-05-01T23:41:12.803Z,59.60
2023-05-01T23:43:54.642Z,58.65
2023-05-01T23:46:35.908Z,58.53
2023-05-01T23:49:22.671Z,58.97
2023-05-01T23:52:09.637Z,59.18
2023-05-01T23:54:49.743Z,58.60
2023-05-01T23:57:36.686Z,59.52
